Pagrindinis puslapis
METAR-TAF:

METAR-TAF

Oro uostai :

Žoinvilis, Santa Katarina, Brazilija

platuma: 26-13-23S, ilguma: 048-47-51W, Aukštis: 4 m

Dabartinis oras

Ataskaita buvo paskelbta 33 minutes, ne 23:00 UTC
Vėjas 1 kt iš Šiaurės/Šiaurės Vakarų
Temperatūra 21°C
Drėgmė 94%
Slėgis 1011 hPa
Matomumas: 9000 m
Mažai debesys ne aukštis 1000 ft
Su prošvaistėmis ne aukštis 6000 ft

METAR: SBJV 162300Z 34001KT 9000 FEW010 BKN060 21/20 Q1011

Laikas: 20:33 (23:33 UTC)

Prognozė

Ataskaita buvo paskelbta 7 valandos ir 33 minutes, ne 16:00 UTC
Prognozė galioja nuo 16 metu 18 UTC su 17 metu 06 UTC
Vėjas 6 kt iš Rytų
Matomumas 10 km arba daugiau
Išsisklaidę debesys ne aukštis 800 ft
Tapsmas
nuo 16 metu 22 UTC su 16 metu 24 UTC
Vėjas 5 kt iš Vakarų
Su prošvaistėmis ne aukštis 1000 ft

TAF: SBJV 161600Z 1618/1706 08006KT 9999 SCT008 TX24/1618Z TN19/1703Z BECMG 1622/1624 27005KT BKN010 RMK PDU

Orai ataskaitas ir orų prognozės (METAR, TAF).

turimą stotys yra geltonos ir raudonos taškus žemėlapyje.

Perkelti pele per norėdami pamatyti stoties vardą.

Tada spustelėkite, norėdami matyti oro stebėjimo ir prognozės.

Norėdami pakeisti žemėlapį: spustelėkite ant žalios mygtukų su juodo kryžiaus žemyn,; žalią mygtuką su brūkšneliu, jei norite nutolinti; arba žalių rodyklių gretimoms žemėlapius.


METAR-TAF: